VLG8AU LEGR-LEBL
Flight info
| Callsign | VLG8AU |
|---|---|
| Flight time | 0h 58m |
| Altitude | 31000 |
| Route | VIBAS N865 AMR N860 VLC L34 CASIM DCT MATEX |
| Aircraft | A320/M-SDE3FGHIRWY/LB1 |
Departure
| Time | 2026-04-10 21:13 |
|---|---|
| Airport | F.G.L. Airport Granada-Jaén Airport (LEGR) |
Arrival
| Time | 2026-04-10 22:11 |
|---|---|
| Airport | Josep Tarradellas Barcelona-El Prat Airport (LEBL) |
| Time | Latitude | Longitude | Altitude | Speed | Heading |
|---|---|---|---|---|---|
| 2026-04-10 20:44 | 37.18566 | -3.77825 | 1871 ft | 0 kts | 269° |
| 2026-04-10 21:02 | 37.18566 | -3.77815 | 1871 ft | 2 kts | 269° |
| 2026-04-10 21:02 | 37.18566 | -3.77806 | 1871 ft | 0 kts | 269° |
| 2026-04-10 21:08 | 37.18566 | -3.77835 | 1871 ft | 4 kts | 268° |
| 2026-04-10 21:08 | 37.18565 | -3.77866 | 1871 ft | 2 kts | 268° |
| 2026-04-10 21:08 | 37.18565 | -3.77889 | 1871 ft | 5 kts | 272° |
| 2026-04-10 21:08 | 37.18578 | -3.77904 | 1868 ft | 5 kts | 329° |
| 2026-04-10 21:09 | 37.18641 | -3.77917 | 1871 ft | 13 kts | 360° |
| 2026-04-10 21:09 | 37.18705 | -3.77961 | 1863 ft | 12 kts | 278° |
| 2026-04-10 21:09 | 37.18703 | -3.78079 | 1863 ft | 15 kts | 272° |
| 2026-04-10 21:09 | 37.18706 | -3.78212 | 1867 ft | 16 kts | 270° |
| 2026-04-10 21:10 | 37.18704 | -3.78303 | 1869 ft | 16 kts | 269° |
| 2026-04-10 21:10 | 37.18701 | -3.78441 | 1870 ft | 16 kts | 269° |
| 2026-04-10 21:10 | 37.18698 | -3.78596 | 1868 ft | 19 kts | 268° |
| 2026-04-10 21:10 | 37.18698 | -3.78765 | 1869 ft | 19 kts | 270° |
| 2026-04-10 21:11 | 37.18698 | -3.78933 | 1870 ft | 20 kts | 269° |
| 2026-04-10 21:11 | 37.18697 | -3.79114 | 1867 ft | 22 kts | 269° |
| 2026-04-10 21:11 | 37.18711 | -3.79297 | 1864 ft | 19 kts | 313° |
| 2026-04-10 21:11 | 37.18843 | -3.79319 | 1860 ft | 17 kts | 23° |
| 2026-04-10 21:12 | 37.18866 | -3.79237 | 1867 ft | 6 kts | 87° |
| 2026-04-10 21:12 | 37.18866 | -3.79156 | 1870 ft | 28 kts | 89° |
| 2026-04-10 21:12 | 37.18869 | -3.78571 | 1874 ft | 103 kts | 90° |
| 2026-04-10 21:12 | 37.18877 | -3.77404 | 1862 ft | 161 kts | 89° |
| 2026-04-10 21:13 | 37.18891 | -3.75872 | 2255 ft | 175 kts | 89° |
| 2026-04-10 21:13 | 37.18907 | -3.74366 | 3047 ft | 170 kts | 87° |
| 2026-04-10 21:13 | 37.18912 | -3.72907 | 3730 ft | 170 kts | 89° |
| 2026-04-10 21:13 | 37.18921 | -3.71335 | 4151 ft | 190 kts | 90° |
| 2026-04-10 21:14 | 37.18947 | -3.69575 | 4512 ft | 213 kts | 85° |
| 2026-04-10 21:14 | 37.19167 | -3.67636 | 4858 ft | 233 kts | 81° |
| 2026-04-10 21:14 | 37.19473 | -3.65536 | 5252 ft | 257 kts | 80° |
| 2026-04-10 21:15 | 37.20281 | -3.60959 | 6805 ft | 275 kts | 69° |
| 2026-04-10 21:15 | 37.21296 | -3.58942 | 7691 ft | 279 kts | 55° |
| 2026-04-10 21:15 | 37.22483 | -3.56991 | 8621 ft | 281 kts | 56° |
| 2026-04-10 21:15 | 37.23683 | -3.55036 | 9538 ft | 283 kts | 57° |
| 2026-04-10 21:16 | 37.24897 | -3.53061 | 10324 ft | 292 kts | 57° |
| 2026-04-10 21:16 | 37.26185 | -3.50946 | 10653 ft | 316 kts | 57° |
| 2026-04-10 21:16 | 37.27567 | -3.48667 | 10904 ft | 340 kts | 57° |
| 2026-04-10 21:16 | 37.29030 | -3.46259 | 11324 ft | 351 kts | 57° |
| 2026-04-10 21:17 | 37.30537 | -3.43790 | 11931 ft | 359 kts | 57° |
| 2026-04-10 21:17 | 37.32055 | -3.41304 | 12491 ft | 369 kts | 58° |
| 2026-04-10 21:17 | 37.33631 | -3.38723 | 13147 ft | 376 kts | 57° |
| 2026-04-10 21:17 | 37.35237 | -3.36094 | 13829 ft | 381 kts | 58° |
| 2026-04-10 21:18 | 37.36864 | -3.33422 | 14477 ft | 386 kts | 58° |
| 2026-04-10 21:18 | 37.38507 | -3.30715 | 15059 ft | 392 kts | 58° |
| 2026-04-10 21:18 | 37.40170 | -3.27973 | 15724 ft | 395 kts | 58° |
| 2026-04-10 21:18 | 37.41847 | -3.25210 | 16369 ft | 398 kts | 59° |
| 2026-04-10 21:19 | 37.43518 | -3.22460 | 16963 ft | 402 kts | 58° |
| 2026-04-10 21:19 | 37.45221 | -3.19651 | 17614 ft | 404 kts | 58° |
| 2026-04-10 21:19 | 37.46933 | -3.16814 | 18223 ft | 408 kts | 59° |
| 2026-04-10 21:19 | 37.48661 | -3.13949 | 18743 ft | 411 kts | 59° |
| 2026-04-10 21:20 | 37.50403 | -3.11065 | 19247 ft | 416 kts | 59° |
| 2026-04-10 21:20 | 37.52157 | -3.08157 | 19782 ft | 418 kts | 59° |
| 2026-04-10 21:20 | 37.53924 | -3.05228 | 20258 ft | 421 kts | 59° |
| 2026-04-10 21:20 | 37.55689 | -3.02300 | 20641 ft | 427 kts | 58° |
| 2026-04-10 21:21 | 37.57498 | -2.99302 | 21105 ft | 431 kts | 58° |
| 2026-04-10 21:21 | 37.59322 | -2.96269 | 21559 ft | 435 kts | 58° |
| 2026-04-10 21:21 | 37.61153 | -2.93212 | 22036 ft | 438 kts | 59° |
| 2026-04-10 21:21 | 37.62999 | -2.90124 | 22518 ft | 441 kts | 59° |
| 2026-04-10 21:22 | 37.64835 | -2.87052 | 22968 ft | 445 kts | 59° |
| 2026-04-10 21:22 | 37.66705 | -2.83926 | 23429 ft | 448 kts | 59° |
| 2026-04-10 21:22 | 37.68595 | -2.80770 | 23810 ft | 451 kts | 59° |
| 2026-04-10 21:22 | 37.70502 | -2.77586 | 24203 ft | 453 kts | 58° |
| 2026-04-10 21:23 | 37.72412 | -2.74390 | 24616 ft | 456 kts | 59° |
| 2026-04-10 21:23 | 37.74327 | -2.71180 | 24993 ft | 458 kts | 59° |
| 2026-04-10 21:23 | 37.76233 | -2.67987 | 25361 ft | 460 kts | 59° |
| 2026-04-10 21:23 | 37.78178 | -2.64725 | 25701 ft | 463 kts | 58° |
| 2026-04-10 21:24 | 37.80125 | -2.61454 | 26048 ft | 466 kts | 58° |
| 2026-04-10 21:24 | 37.82053 | -2.58207 | 26416 ft | 469 kts | 58° |
| 2026-04-10 21:24 | 37.84018 | -2.54887 | 26766 ft | 471 kts | 58° |
| 2026-04-10 21:24 | 37.85994 | -2.51547 | 27110 ft | 474 kts | 58° |
| 2026-04-10 21:25 | 37.87969 | -2.48219 | 27435 ft | 476 kts | 58° |
| 2026-04-10 21:25 | 37.89962 | -2.44854 | 27758 ft | 479 kts | 58° |
| 2026-04-10 21:25 | 37.91967 | -2.41462 | 28087 ft | 481 kts | 59° |
| 2026-04-10 21:25 | 37.93974 | -2.38058 | 28406 ft | 483 kts | 58° |
| 2026-04-10 21:26 | 37.95986 | -2.34640 | 28729 ft | 484 kts | 59° |
| 2026-04-10 21:26 | 37.98003 | -2.31211 | 29056 ft | 487 kts | 59° |
| 2026-04-10 21:26 | 38.00013 | -2.27793 | 29347 ft | 488 kts | 59° |
| 2026-04-10 21:26 | 38.02058 | -2.24314 | 29655 ft | 491 kts | 59° |
| 2026-04-10 21:27 | 38.04108 | -2.20829 | 30033 ft | 491 kts | 59° |
| 2026-04-10 21:27 | 38.06129 | -2.17390 | 30378 ft | 491 kts | 59° |
| 2026-04-10 21:27 | 38.08182 | -2.13891 | 30709 ft | 491 kts | 59° |
| 2026-04-10 21:27 | 38.10229 | -2.10403 | 31036 ft | 492 kts | 59° |
| 2026-04-10 21:28 | 38.12249 | -2.06957 | 31344 ft | 492 kts | 59° |
| 2026-04-10 21:28 | 38.14296 | -2.03458 | 31677 ft | 492 kts | 59° |
| 2026-04-10 21:28 | 38.16342 | -1.99957 | 32000 ft | 492 kts | 59° |
| 2026-04-10 21:28 | 38.18383 | -1.96460 | 32321 ft | 492 kts | 58° |
| 2026-04-10 21:29 | 38.20417 | -1.92971 | 32789 ft | 488 kts | 58° |
| 2026-04-10 21:29 | 38.22439 | -1.89496 | 33116 ft | 488 kts | 58° |
| 2026-04-10 21:29 | 38.24438 | -1.86051 | 33395 ft | 490 kts | 58° |
| 2026-04-10 21:29 | 38.26460 | -1.82561 | 33697 ft | 491 kts | 58° |
| 2026-04-10 21:30 | 38.28485 | -1.79061 | 34011 ft | 491 kts | 58° |
| 2026-04-10 21:30 | 38.30509 | -1.75559 | 34313 ft | 490 kts | 58° |
| 2026-04-10 21:30 | 38.32536 | -1.72054 | 34670 ft | 488 kts | 58° |
| 2026-04-10 21:30 | 38.34547 | -1.68579 | 35060 ft | 485 kts | 57° |
| 2026-04-10 21:31 | 38.36523 | -1.65170 | 35437 ft | 482 kts | 57° |
| 2026-04-10 21:31 | 38.38509 | -1.61741 | 35828 ft | 479 kts | 57° |
| 2026-04-10 21:31 | 38.40476 | -1.58337 | 36208 ft | 475 kts | 58° |
| 2026-04-10 21:31 | 38.42429 | -1.54944 | 36580 ft | 472 kts | 58° |
| 2026-04-10 21:32 | 38.44364 | -1.51575 | 36892 ft | 469 kts | 57° |
| 2026-04-10 21:32 | 38.46291 | -1.48210 | 37010 ft | 468 kts | 57° |
| 2026-04-10 21:32 | 38.50133 | -1.41498 | 37051 ft | 467 kts | 57° |
| 2026-04-10 21:33 | 38.53968 | -1.34797 | 37049 ft | 467 kts | 57° |
| 2026-04-10 21:33 | 38.57784 | -1.28124 | 37048 ft | 467 kts | 57° |
| 2026-04-10 21:34 | 38.61622 | -1.21397 | 37046 ft | 467 kts | 57° |
| 2026-04-10 21:34 | 38.65451 | -1.14656 | 37063 ft | 467 kts | 58° |
| 2026-04-10 21:35 | 38.69254 | -1.07945 | 37041 ft | 468 kts | 57° |
| 2026-04-10 21:35 | 38.73329 | -1.01452 | 37042 ft | 473 kts | 46° |
| 2026-04-10 21:36 | 38.78714 | -0.96543 | 37049 ft | 478 kts | 29° |
| 2026-04-10 21:36 | 38.84606 | -0.92538 | 37050 ft | 479 kts | 30° |
| 2026-04-10 21:37 | 38.90488 | -0.88498 | 37045 ft | 479 kts | 31° |
| 2026-04-10 21:37 | 38.96355 | -0.84463 | 37044 ft | 481 kts | 31° |
| 2026-04-10 21:38 | 39.02267 | -0.80403 | 37043 ft | 482 kts | 31° |
| 2026-04-10 21:38 | 39.08183 | -0.76329 | 37005 ft | 482 kts | 31° |
| 2026-04-10 21:39 | 39.14071 | -0.72270 | 37027 ft | 482 kts | 31° |
| 2026-04-10 21:39 | 39.19977 | -0.68179 | 37064 ft | 480 kts | 31° |
| 2026-04-10 21:40 | 39.25867 | -0.64100 | 37071 ft | 479 kts | 31° |
| 2026-04-10 21:40 | 39.31722 | -0.60043 | 37059 ft | 479 kts | 31° |
| 2026-04-10 21:41 | 39.37605 | -0.55962 | 37068 ft | 478 kts | 31° |
| 2026-04-10 21:41 | 39.43421 | -0.51902 | 37079 ft | 476 kts | 31° |
| 2026-04-10 21:42 | 39.49242 | -0.47808 | 37077 ft | 474 kts | 32° |
| 2026-04-10 21:42 | 39.54860 | -0.43355 | 37074 ft | 472 kts | 36° |
| 2026-04-10 21:43 | 39.60301 | -0.38659 | 37068 ft | 471 kts | 37° |
| 2026-04-10 21:43 | 39.65759 | -0.33975 | 37066 ft | 471 kts | 36° |
| 2026-04-10 21:44 | 39.71286 | -0.29353 | 37061 ft | 471 kts | 35° |
| 2026-04-10 21:44 | 39.76786 | -0.24799 | 37055 ft | 471 kts | 35° |
| 2026-04-10 21:45 | 39.82306 | -0.20197 | 37044 ft | 470 kts | 35° |
| 2026-04-10 21:45 | 39.87809 | -0.15563 | 37043 ft | 470 kts | 36° |
| 2026-04-10 21:46 | 39.93283 | -0.10942 | 37040 ft | 470 kts | 36° |
| 2026-04-10 21:46 | 39.98760 | -0.06326 | 37043 ft | 470 kts | 36° |
| 2026-04-10 21:47 | 40.04227 | -0.01706 | 37049 ft | 470 kts | 35° |
| 2026-04-10 21:47 | 40.09723 | 0.02943 | 37057 ft | 470 kts | 35° |
| 2026-04-10 21:48 | 40.15223 | 0.07606 | 37054 ft | 470 kts | 35° |
| 2026-04-10 21:48 | 40.17984 | 0.09948 | 36265 ft | 476 kts | 35° |
| 2026-04-10 21:48 | 40.20780 | 0.12309 | 35311 ft | 481 kts | 33° |
| 2026-04-10 21:49 | 40.23733 | 0.14304 | 34481 ft | 486 kts | 24° |
| 2026-04-10 21:49 | 40.26931 | 0.15747 | 33637 ft | 488 kts | 16° |
| 2026-04-10 21:49 | 40.30202 | 0.16956 | 32692 ft | 489 kts | 17° |
| 2026-04-10 21:49 | 40.33483 | 0.18180 | 31731 ft | 491 kts | 17° |
| 2026-04-10 21:50 | 40.36786 | 0.19421 | 30758 ft | 493 kts | 17° |
| 2026-04-10 21:50 | 40.40089 | 0.20664 | 29708 ft | 495 kts | 17° |
| 2026-04-10 21:50 | 40.43407 | 0.21913 | 28522 ft | 498 kts | 16° |
| 2026-04-10 21:50 | 40.46749 | 0.23171 | 27429 ft | 499 kts | 16° |
| 2026-04-10 21:51 | 40.49993 | 0.24574 | 27148 ft | 481 kts | 25° |
| 2026-04-10 21:51 | 40.52821 | 0.26729 | 27016 ft | 460 kts | 38° |
| 2026-04-10 21:51 | 40.55127 | 0.29489 | 26495 ft | 438 kts | 51° |
| 2026-04-10 21:51 | 40.56843 | 0.32668 | 25604 ft | 426 kts | 64° |
| 2026-04-10 21:52 | 40.57980 | 0.36210 | 24648 ft | 416 kts | 76° |
| 2026-04-10 21:52 | 40.58810 | 0.39838 | 23723 ft | 411 kts | 76° |
| 2026-04-10 21:52 | 40.59643 | 0.43419 | 23428 ft | 409 kts | 75° |
| 2026-04-10 21:52 | 40.60478 | 0.46959 | 23083 ft | 409 kts | 75° |
| 2026-04-10 21:53 | 40.61324 | 0.50522 | 22738 ft | 407 kts | 75° |
| 2026-04-10 21:53 | 40.62170 | 0.54072 | 22389 ft | 405 kts | 75° |
| 2026-04-10 21:53 | 40.63011 | 0.57615 | 22042 ft | 403 kts | 75° |
| 2026-04-10 21:53 | 40.63563 | 0.59951 | 21815 ft | 402 kts | 75° |
| 2026-04-10 21:54 | 40.64665 | 0.64643 | 21354 ft | 399 kts | 75° |
| 2026-04-10 21:54 | 40.65481 | 0.68136 | 21015 ft | 397 kts | 75° |
| 2026-04-10 21:54 | 40.66278 | 0.71573 | 20678 ft | 396 kts | 75° |
| 2026-04-10 21:54 | 40.67075 | 0.75031 | 20341 ft | 394 kts | 75° |
| 2026-04-10 21:55 | 40.67873 | 0.78481 | 20003 ft | 393 kts | 74° |
| 2026-04-10 21:55 | 40.68673 | 0.81925 | 19673 ft | 391 kts | 74° |
| 2026-04-10 21:55 | 40.69472 | 0.85353 | 19332 ft | 390 kts | 74° |
| 2026-04-10 21:55 | 40.70265 | 0.88760 | 19013 ft | 388 kts | 74° |
| 2026-04-10 21:56 | 40.71054 | 0.92165 | 18673 ft | 387 kts | 73° |
| 2026-04-10 21:56 | 40.71835 | 0.95550 | 18338 ft | 385 kts | 73° |
| 2026-04-10 21:56 | 40.72612 | 0.98930 | 17981 ft | 383 kts | 73° |
| 2026-04-10 21:56 | 40.73384 | 1.02289 | 17657 ft | 382 kts | 73° |
| 2026-04-10 21:57 | 40.74153 | 1.05629 | 17334 ft | 380 kts | 73° |
| 2026-04-10 21:57 | 40.74910 | 1.08918 | 17009 ft | 378 kts | 73° |
| 2026-04-10 21:57 | 40.75669 | 1.12234 | 16680 ft | 377 kts | 73° |
| 2026-04-10 21:57 | 40.76424 | 1.15540 | 16354 ft | 375 kts | 73° |
| 2026-04-10 21:58 | 40.77178 | 1.18836 | 16033 ft | 373 kts | 73° |
| 2026-04-10 21:58 | 40.77674 | 1.21005 | 15817 ft | 372 kts | 73° |
| 2026-04-10 21:58 | 40.78423 | 1.24277 | 15498 ft | 371 kts | 73° |
| 2026-04-10 21:58 | 40.79163 | 1.27530 | 15175 ft | 369 kts | 73° |
| 2026-04-10 21:59 | 40.79901 | 1.30779 | 14855 ft | 367 kts | 73° |
| 2026-04-10 21:59 | 40.80634 | 1.34009 | 14536 ft | 366 kts | 73° |
| 2026-04-10 21:59 | 40.81353 | 1.37182 | 14227 ft | 364 kts | 73° |
| 2026-04-10 21:59 | 40.82079 | 1.40389 | 13914 ft | 363 kts | 73° |
| 2026-04-10 22:00 | 40.82800 | 1.43578 | 13576 ft | 361 kts | 72° |
| 2026-04-10 22:00 | 40.83765 | 1.46613 | 13234 ft | 357 kts | 57° |
| 2026-04-10 22:00 | 40.85130 | 1.49342 | 12702 ft | 354 kts | 55° |
| 2026-04-10 22:00 | 40.86499 | 1.52043 | 11797 ft | 351 kts | 55° |
| 2026-04-10 22:01 | 40.87833 | 1.54669 | 10981 ft | 346 kts | 54° |
| 2026-04-10 22:01 | 40.89168 | 1.57288 | 10498 ft | 338 kts | 54° |
| 2026-04-10 22:01 | 40.90463 | 1.59828 | 10377 ft | 326 kts | 54° |
| 2026-04-10 22:01 | 40.91705 | 1.62274 | 10265 ft | 314 kts | 54° |
| 2026-04-10 22:02 | 40.92907 | 1.64646 | 10060 ft | 306 kts | 53° |
| 2026-04-10 22:02 | 40.94085 | 1.66967 | 9580 ft | 309 kts | 54° |
| 2026-04-10 22:02 | 40.95270 | 1.69307 | 9264 ft | 304 kts | 54° |
| 2026-04-10 22:02 | 40.96445 | 1.71625 | 8892 ft | 301 kts | 54° |
| 2026-04-10 22:03 | 40.97610 | 1.73928 | 8505 ft | 300 kts | 54° |
| 2026-04-10 22:03 | 40.98767 | 1.76210 | 8114 ft | 298 kts | 54° |
| 2026-04-10 22:03 | 40.99919 | 1.78485 | 7724 ft | 296 kts | 54° |
| 2026-04-10 22:03 | 41.01058 | 1.80739 | 7248 ft | 292 kts | 54° |
| 2026-04-10 22:04 | 41.02185 | 1.82968 | 6584 ft | 290 kts | 55° |
| 2026-04-10 22:04 | 41.03288 | 1.85158 | 5901 ft | 287 kts | 55° |
| 2026-04-10 22:04 | 41.04395 | 1.87360 | 5185 ft | 286 kts | 56° |
| 2026-04-10 22:04 | 41.05498 | 1.89557 | 4507 ft | 284 kts | 56° |
| 2026-04-10 22:05 | 41.06546 | 1.91645 | 4254 ft | 266 kts | 56° |
| 2026-04-10 22:05 | 41.07529 | 1.93604 | 4124 ft | 244 kts | 56° |
| 2026-04-10 22:05 | 41.08432 | 1.95405 | 4017 ft | 225 kts | 56° |
| 2026-04-10 22:05 | 41.09256 | 1.97046 | 3945 ft | 206 kts | 56° |
| 2026-04-10 22:06 | 41.10015 | 1.98559 | 3840 ft | 188 kts | 56° |
| 2026-04-10 22:06 | 41.10793 | 1.99854 | 3784 ft | 170 kts | 42° |
| 2026-04-10 22:06 | 41.11772 | 2.00643 | 3545 ft | 165 kts | 20° |
| 2026-04-10 22:06 | 41.12832 | 2.01192 | 3294 ft | 162 kts | 18° |
| 2026-04-10 22:07 | 41.13875 | 2.01689 | 3073 ft | 161 kts | 17° |
| 2026-04-10 22:07 | 41.14939 | 2.02182 | 2854 ft | 161 kts | 17° |
| 2026-04-10 22:07 | 41.15986 | 2.02661 | 2656 ft | 161 kts | 17° |
| 2026-04-10 22:08 | 41.18102 | 2.03625 | 2221 ft | 160 kts | 16° |
| 2026-04-10 22:08 | 41.19159 | 2.04105 | 2012 ft | 160 kts | 16° |
| 2026-04-10 22:08 | 41.20213 | 2.04584 | 1803 ft | 159 kts | 15° |
| 2026-04-10 22:08 | 41.21260 | 2.05061 | 1589 ft | 158 kts | 15° |
| 2026-04-10 22:09 | 41.22297 | 2.05532 | 1378 ft | 157 kts | 15° |
| 2026-04-10 22:09 | 41.23323 | 2.05999 | 1173 ft | 155 kts | 15° |
| 2026-04-10 22:09 | 41.24329 | 2.06457 | 968 ft | 154 kts | 15° |
| 2026-04-10 22:09 | 41.25329 | 2.06913 | 769 ft | 150 kts | 17° |
| 2026-04-10 22:10 | 41.26311 | 2.07360 | 561 ft | 150 kts | 17° |
| 2026-04-10 22:10 | 41.27293 | 2.07804 | 389 ft | 149 kts | 18° |
| 2026-04-10 22:10 | 41.28261 | 2.08257 | 164 ft | 149 kts | 18° |
| 2026-04-10 22:10 | 41.29224 | 2.08690 | 9 ft | 138 kts | 19° |
| 2026-04-10 22:11 | 41.30021 | 2.09053 | 4 ft | 98 kts | 19° |
| 2026-04-10 22:11 | 41.30507 | 2.09272 | 9 ft | 43 kts | 19° |
| 2026-04-10 22:11 | 41.30602 | 2.09251 | 7 ft | 11 kts | 320° |
| 2026-04-10 22:11 | 41.30670 | 2.09178 | 4 ft | 13 kts | 316° |
| 2026-04-10 22:12 | 41.30664 | 2.09085 | 3 ft | 9 kts | 226° |
| 2026-04-10 22:12 | 41.30602 | 2.09055 | 3 ft | 12 kts | 198° |
| 2026-04-10 22:12 | 41.30498 | 2.09001 | 5 ft | 19 kts | 201° |
| 2026-04-10 22:12 | 41.30352 | 2.08939 | 5 ft | 25 kts | 201° |
| 2026-04-10 22:13 | 41.30192 | 2.08863 | 4 ft | 24 kts | 206° |
| 2026-04-10 22:13 | 41.30044 | 2.08726 | 7 ft | 30 kts | 222° |
| 2026-04-10 22:13 | 41.29933 | 2.08509 | 8 ft | 25 kts | 246° |
| 2026-04-10 22:13 | 41.29823 | 2.08315 | 6 ft | 28 kts | 222° |
| 2026-04-10 22:14 | 41.29663 | 2.08199 | 3 ft | 24 kts | 166° |
| 2026-04-10 22:14 | 41.29508 | 2.08296 | 3 ft | 26 kts | 155° |
| 2026-04-10 22:14 | 41.29354 | 2.08389 | 3 ft | 12 kts | 171° |
| 2026-04-10 22:14 | 41.29275 | 2.08345 | 3 ft | 13 kts | 207° |
| 2026-04-10 22:15 | 41.29226 | 2.08318 | 3 ft | 3 kts | 202° |
| 2026-04-10 22:15 | 41.29224 | 2.08317 | 3 ft | 0 kts | 202° |